sensor_id;sensor_type;location;lat;lon;timestamp;P1;durP1;ratioP1;P2;durP2;ratioP2
35743;SDS011;21867;52.012;4.324;2023-12-22T00:00:06;17.23;;;5.63;;
35743;SDS011;21867;52.012;4.324;2023-12-22T00:02:34;18.40;;;4.93;;
35743;SDS011;21867;52.012;4.324;2023-12-22T00:05:04;15.93;;;5.30;;
35743;SDS011;21867;52.012;4.324;2023-12-22T00:10:02;16.87;;;4.43;;
35743;SDS011;21867;52.012;4.324;2023-12-22T00:12:29;16.30;;;5.10;;
35743;SDS011;21867;52.012;4.324;2023-12-22T00:14:56;23.73;;;6.30;;
35743;SDS011;21867;52.012;4.324;2023-12-22T00:17:24;17.47;;;5.43;;
35743;SDS011;21867;52.012;4.324;2023-12-22T00:19:51;16.47;;;6.07;;
35743;SDS011;21867;52.012;4.324;2023-12-22T00:31:31;16.73;;;5.03;;
35743;SDS011;21867;52.012;4.324;2023-12-22T00:33:59;20.50;;;5.07;;
35743;SDS011;21867;52.012;4.324;2023-12-22T00:36:26;16.37;;;5.27;;
35743;SDS011;21867;52.012;4.324;2023-12-22T00:38:53;16.87;;;5.13;;
35743;SDS011;21867;52.012;4.324;2023-12-22T00:41:21;26.90;;;7.33;;
35743;SDS011;21867;52.012;4.324;2023-12-22T00:43:48;20.63;;;5.87;;
35743;SDS011;21867;52.012;4.324;2023-12-22T00:46:16;22.53;;;6.10;;
35743;SDS011;21867;52.012;4.324;2023-12-22T00:48:44;15.83;;;5.23;;
35743;SDS011;21867;52.012;4.324;2023-12-22T00:51:12;19.00;;;4.80;;
35743;SDS011;21867;52.012;4.324;2023-12-22T00:53:39;11.13;;;4.50;;
35743;SDS011;21867;52.012;4.324;2023-12-22T00:56:06;13.60;;;4.10;;
35743;SDS011;21867;52.012;4.324;2023-12-22T00:58:49;14.73;;;4.67;;
35743;SDS011;21867;52.012;4.324;2023-12-22T01:01:27;14.23;;;4.43;;
35743;SDS011;21867;52.012;4.324;2023-12-22T01:03:56;14.40;;;5.03;;
35743;SDS011;21867;52.012;4.324;2023-12-22T01:06:24;15.20;;;5.27;;
35743;SDS011;21867;52.012;4.324;2023-12-22T01:15:55;20.07;;;5.53;;
35743;SDS011;21867;52.012;4.324;2023-12-22T01:18:23;13.43;;;5.07;;
35743;SDS011;21867;52.012;4.324;2023-12-22T01:20:52;18.90;;;5.10;;
35743;SDS011;21867;52.012;4.324;2023-12-22T01:23:19;21.20;;;6.10;;
35743;SDS011;21867;52.012;4.324;2023-12-22T01:25:46;15.57;;;5.70;;
35743;SDS011;21867;52.012;4.324;2023-12-22T01:28:14;16.87;;;4.60;;
35743;SDS011;21867;52.012;4.324;2023-12-22T01:30:42;23.67;;;5.57;;
35743;SDS011;21867;52.012;4.324;2023-12-22T01:33:09;13.93;;;3.87;;
35743;SDS011;21867;52.012;4.324;2023-12-22T01:35:36;22.57;;;5.60;;
35743;SDS011;21867;52.012;4.324;2023-12-22T01:38:05;18.10;;;4.90;;
35743;SDS011;21867;52.012;4.324;2023-12-22T01:40:33;19.27;;;5.77;;
35743;SDS011;21867;52.012;4.324;2023-12-22T01:46:09;18.23;;;6.07;;
35743;SDS011;21867;52.012;4.324;2023-12-22T01:48:37;20.00;;;4.50;;
35743;SDS011;21867;52.012;4.324;2023-12-22T01:51:05;14.73;;;5.17;;
35743;SDS011;21867;52.012;4.324;2023-12-22T01:53:35;11.67;;;4.83;;
35743;SDS011;21867;52.012;4.324;2023-12-22T01:56:05;24.00;;;5.13;;
35743;SDS011;21867;52.012;4.324;2023-12-22T01:58:48;15.47;;;4.33;;
35743;SDS011;21867;52.012;4.324;2023-12-22T02:01:18;22.20;;;4.87;;
35743;SDS011;21867;52.012;4.324;2023-12-22T02:03:46;16.83;;;5.33;;
35743;SDS011;21867;52.012;4.324;2023-12-22T02:06:16;15.77;;;5.27;;
35743;SDS011;21867;52.012;4.324;2023-12-22T02:08:45;13.57;;;4.43;;
35743;SDS011;21867;52.012;4.324;2023-12-22T02:11:14;15.23;;;4.87;;
35743;SDS011;21867;52.012;4.324;2023-12-22T02:13:41;12.50;;;3.73;;
35743;SDS011;21867;52.012;4.324;2023-12-22T02:16:11;16.03;;;4.60;;
35743;SDS011;21867;52.012;4.324;2023-12-22T02:18:39;13.50;;;3.90;;
35743;SDS011;21867;52.012;4.324;2023-12-22T02:21:06;14.27;;;4.33;;
35743;SDS011;21867;52.012;4.324;2023-12-22T02:23:35;9.43;;;4.40;;
35743;SDS011;21867;52.012;4.324;2023-12-22T02:26:06;8.93;;;4.23;;
35743;SDS011;21867;52.012;4.324;2023-12-22T02:28:33;18.37;;;4.07;;
35743;SDS011;21867;52.012;4.324;2023-12-22T02:31:03;16.33;;;5.07;;
35743;SDS011;21867;52.012;4.324;2023-12-22T02:33:31;13.60;;;4.30;;
35743;SDS011;21867;52.012;4.324;2023-12-22T02:36:03;15.40;;;4.50;;
35743;SDS011;21867;52.012;4.324;2023-12-22T02:44:24;13.43;;;5.87;;
35743;SDS011;21867;52.012;4.324;2023-12-22T02:46:51;10.83;;;3.67;;
35743;SDS011;21867;52.012;4.324;2023-12-22T02:49:19;17.33;;;5.23;;
35743;SDS011;21867;52.012;4.324;2023-12-22T02:51:46;15.07;;;4.13;;
35743;SDS011;21867;52.012;4.324;2023-12-22T02:54:14;14.07;;;3.90;;
35743;SDS011;21867;52.012;4.324;2023-12-22T02:59:25;12.00;;;4.10;;
35743;SDS011;21867;52.012;4.324;2023-12-22T03:01:53;15.73;;;4.37;;
35743;SDS011;21867;52.012;4.324;2023-12-22T03:04:20;12.73;;;4.20;;
35743;SDS011;21867;52.012;4.324;2023-12-22T03:13:33;19.17;;;4.87;;
35743;SDS011;21867;52.012;4.324;2023-12-22T03:16:03;13.53;;;3.97;;
35743;SDS011;21867;52.012;4.324;2023-12-22T03:18:35;12.80;;;4.50;;
35743;SDS011;21867;52.012;4.324;2023-12-22T03:21:04;16.47;;;4.83;;
35743;SDS011;21867;52.012;4.324;2023-12-22T03:23:32;14.10;;;4.53;;
35743;SDS011;21867;52.012;4.324;2023-12-22T03:28:48;18.63;;;6.20;;
35743;SDS011;21867;52.012;4.324;2023-12-22T03:31:16;21.53;;;4.73;;
35743;SDS011;21867;52.012;4.324;2023-12-22T03:33:44;13.87;;;4.30;;
35743;SDS011;21867;52.012;4.324;2023-12-22T03:40:00;16.87;;;4.70;;
35743;SDS011;21867;52.012;4.324;2023-12-22T03:42:28;17.93;;;4.83;;
35743;SDS011;21867;52.012;4.324;2023-12-22T03:45:04;12.93;;;3.63;;
35743;SDS011;21867;52.012;4.324;2023-12-22T03:47:33;9.10;;;3.53;;
35743;SDS011;21867;52.012;4.324;2023-12-22T03:50:01;12.40;;;3.87;;
35743;SDS011;21867;52.012;4.324;2023-12-22T03:52:28;13.10;;;3.93;;
35743;SDS011;21867;52.012;4.324;2023-12-22T03:55:05;11.83;;;3.70;;
35743;SDS011;21867;52.012;4.324;2023-12-22T03:57:33;20.07;;;5.43;;
35743;SDS011;21867;52.012;4.324;2023-12-22T04:00:00;18.60;;;4.17;;
35743;SDS011;21867;52.012;4.324;2023-12-22T04:02:29;16.30;;;4.20;;
35743;SDS011;21867;52.012;4.324;2023-12-22T04:04:58;13.83;;;4.43;;
35743;SDS011;21867;52.012;4.324;2023-12-22T04:07:41;18.23;;;4.60;;
35743;SDS011;21867;52.012;4.324;2023-12-22T04:10:21;14.23;;;4.20;;
35743;SDS011;21867;52.012;4.324;2023-12-22T04:12:49;12.20;;;4.53;;
35743;SDS011;21867;52.012;4.324;2023-12-22T04:15:16;10.60;;;3.70;;
35743;SDS011;21867;52.012;4.324;2023-12-22T04:17:44;18.40;;;4.83;;
35743;SDS011;21867;52.012;4.324;2023-12-22T04:20:13;20.17;;;5.10;;
35743;SDS011;21867;52.012;4.324;2023-12-22T04:22:40;13.57;;;4.30;;
35743;SDS011;21867;52.012;4.324;2023-12-22T04:25:13;21.43;;;5.40;;
35743;SDS011;21867;52.012;4.324;2023-12-22T04:27:41;14.40;;;4.50;;
35743;SDS011;21867;52.012;4.324;2023-12-22T04:30:09;13.33;;;3.43;;
35743;SDS011;21867;52.012;4.324;2023-12-22T04:32:36;18.40;;;6.10;;
35743;SDS011;21867;52.012;4.324;2023-12-22T04:41:04;20.23;;;4.93;;
35743;SDS011;21867;52.012;4.324;2023-12-22T04:43:31;16.73;;;5.13;;
35743;SDS011;21867;52.012;4.324;2023-12-22T04:45:59;25.43;;;5.97;;
35743;SDS011;21867;52.012;4.324;2023-12-22T04:48:26;24.53;;;5.80;;
35743;SDS011;21867;52.012;4.324;2023-12-22T04:50:54;17.77;;;4.83;;
35743;SDS011;21867;52.012;4.324;2023-12-22T04:53:21;17.57;;;4.97;;
35743;SDS011;21867;52.012;4.324;2023-12-22T04:58:36;13.27;;;4.90;;
35743;SDS011;21867;52.012;4.324;2023-12-22T05:01:04;18.57;;;5.20;;
35743;SDS011;21867;52.012;4.324;2023-12-22T05:03:31;22.83;;;5.57;;
35743;SDS011;21867;52.012;4.324;2023-12-22T05:09:53;18.40;;;6.23;;
35743;SDS011;21867;52.012;4.324;2023-12-22T05:12:20;27.07;;;6.07;;
35743;SDS011;21867;52.012;4.324;2023-12-22T05:14:49;39.07;;;9.43;;
35743;SDS011;21867;52.012;4.324;2023-12-22T05:17:16;29.63;;;7.30;;
35743;SDS011;21867;52.012;4.324;2023-12-22T05:19:44;27.30;;;6.73;;
35743;SDS011;21867;52.012;4.324;2023-12-22T05:22:11;27.47;;;7.40;;
35743;SDS011;21867;52.012;4.324;2023-12-22T05:24:44;25.07;;;7.00;;
35743;SDS011;21867;52.012;4.324;2023-12-22T05:27:11;28.57;;;6.17;;
35743;SDS011;21867;52.012;4.324;2023-12-22T05:29:39;20.60;;;6.83;;
35743;SDS011;21867;52.012;4.324;2023-12-22T05:32:07;30.43;;;7.40;;
35743;SDS011;21867;52.012;4.324;2023-12-22T05:43:00;37.97;;;8.40;;
35743;SDS011;21867;52.012;4.324;2023-12-22T05:45:27;30.40;;;7.53;;
35743;SDS011;21867;52.012;4.324;2023-12-22T05:47:56;33.60;;;8.80;;
35743;SDS011;21867;52.012;4.324;2023-12-22T05:50:23;27.70;;;7.83;;
35743;SDS011;21867;52.012;4.324;2023-12-22T05:52:51;26.33;;;7.30;;
35743;SDS011;21867;52.012;4.324;2023-12-22T05:58:00;32.00;;;7.77;;
35743;SDS011;21867;52.012;4.324;2023-12-22T06:00:28;28.53;;;7.00;;
35743;SDS011;21867;52.012;4.324;2023-12-22T06:02:57;32.57;;;8.13;;
35743;SDS011;21867;52.012;4.324;2023-12-22T06:05:24;31.47;;;7.63;;
35743;SDS011;21867;52.012;4.324;2023-12-22T06:07:52;35.03;;;8.17;;
35743;SDS011;21867;52.012;4.324;2023-12-22T06:17:04;31.80;;;7.37;;
35743;SDS011;21867;52.012;4.324;2023-12-22T06:19:33;26.10;;;8.93;;
35743;SDS011;21867;52.012;4.324;2023-12-22T06:22:02;37.43;;;9.00;;
35743;SDS011;21867;52.012;4.324;2023-12-22T06:24:29;27.37;;;8.13;;
35743;SDS011;21867;52.012;4.324;2023-12-22T06:26:57;38.33;;;7.73;;
35743;SDS011;21867;52.012;4.324;2023-12-22T06:32:16;34.63;;;8.77;;
35743;SDS011;21867;52.012;4.324;2023-12-22T06:34:44;35.03;;;8.83;;
35743;SDS011;21867;52.012;4.324;2023-12-22T06:37:12;25.27;;;6.37;;
35743;SDS011;21867;52.012;4.324;2023-12-22T06:46:01;29.33;;;6.63;;
35743;SDS011;21867;52.012;4.324;2023-12-22T06:48:28;24.40;;;6.27;;
35743;SDS011;21867;52.012;4.324;2023-12-22T06:50:57;26.10;;;7.30;;
35743;SDS011;21867;52.012;4.324;2023-12-22T06:53:25;32.70;;;7.10;;
35743;SDS011;21867;52.012;4.324;2023-12-22T06:55:52;23.40;;;5.90;;
35743;SDS011;21867;52.012;4.324;2023-12-22T06:58:20;22.30;;;6.53;;
35743;SDS011;21867;52.012;4.324;2023-12-22T07:00:47;29.33;;;7.03;;
35743;SDS011;21867;52.012;4.324;2023-12-22T07:03:15;24.73;;;6.53;;
35743;SDS011;21867;52.012;4.324;2023-12-22T07:05:43;31.20;;;6.63;;
35743;SDS011;21867;52.012;4.324;2023-12-22T07:08:11;21.33;;;5.70;;
35743;SDS011;21867;52.012;4.324;2023-12-22T07:10:39;29.23;;;5.47;;
35743;SDS011;21867;52.012;4.324;2023-12-22T07:13:06;21.23;;;6.03;;
35743;SDS011;21867;52.012;4.324;2023-12-22T07:15:34;24.20;;;5.83;;
35743;SDS011;21867;52.012;4.324;2023-12-22T07:18:01;20.27;;;5.90;;
35743;SDS011;21867;52.012;4.324;2023-12-22T07:20:29;17.30;;;5.57;;
35743;SDS011;21867;52.012;4.324;2023-12-22T07:22:56;26.97;;;5.90;;
35743;SDS011;21867;52.012;4.324;2023-12-22T07:25:25;18.37;;;4.73;;
35743;SDS011;21867;52.012;4.324;2023-12-22T07:27:52;20.13;;;7.80;;
35743;SDS011;21867;52.012;4.324;2023-12-22T07:30:20;19.10;;;5.20;;
35743;SDS011;21867;52.012;4.324;2023-12-22T07:32:47;25.43;;;7.40;;
35743;SDS011;21867;52.012;4.324;2023-12-22T07:35:15;21.13;;;5.73;;
35743;SDS011;21867;52.012;4.324;2023-12-22T07:37:44;34.23;;;6.33;;
35743;SDS011;21867;52.012;4.324;2023-12-22T07:40:12;13.63;;;5.33;;
35743;SDS011;21867;52.012;4.324;2023-12-22T07:42:41;25.40;;;5.67;;
35743;SDS011;21867;52.012;4.324;2023-12-22T07:45:17;21.87;;;5.53;;
35743;SDS011;21867;52.012;4.324;2023-12-22T07:47:45;19.13;;;5.30;;
35743;SDS011;21867;52.012;4.324;2023-12-22T07:50:13;15.73;;;5.03;;
35743;SDS011;21867;52.012;4.324;2023-12-22T07:52:40;26.20;;;6.93;;
35743;SDS011;21867;52.012;4.324;2023-12-22T08:01:10;18.50;;;4.63;;
35743;SDS011;21867;52.012;4.324;2023-12-22T08:03:38;20.13;;;4.90;;
35743;SDS011;21867;52.012;4.324;2023-12-22T08:06:05;22.13;;;5.37;;
35743;SDS011;21867;52.012;4.324;2023-12-22T08:08:35;15.40;;;4.03;;
35743;SDS011;21867;52.012;4.324;2023-12-22T08:11:03;19.23;;;4.37;;
35743;SDS011;21867;52.012;4.324;2023-12-22T08:16:07;13.23;;;4.80;;
35743;SDS011;21867;52.012;4.324;2023-12-22T08:18:35;12.23;;;3.87;;
35743;SDS011;21867;52.012;4.324;2023-12-22T08:21:03;12.00;;;4.30;;
35743;SDS011;21867;52.012;4.324;2023-12-22T08:23:43;12.47;;;4.00;;
35743;SDS011;21867;52.012;4.324;2023-12-22T08:26:19;11.73;;;4.13;;
35743;SDS011;21867;52.012;4.324;2023-12-22T08:35:27;12.23;;;3.57;;
35743;SDS011;21867;52.012;4.324;2023-12-22T08:37:54;6.80;;;2.40;;
35743;SDS011;21867;52.012;4.324;2023-12-22T08:40:22;12.47;;;3.73;;
35743;SDS011;21867;52.012;4.324;2023-12-22T08:42:50;11.37;;;3.47;;
35743;SDS011;21867;52.012;4.324;2023-12-22T08:45:17;11.53;;;4.17;;
35743;SDS011;21867;52.012;4.324;2023-12-22T08:50:34;14.03;;;5.50;;
35743;SDS011;21867;52.012;4.324;2023-12-22T08:53:01;6.53;;;3.43;;
35743;SDS011;21867;52.012;4.324;2023-12-22T08:55:29;11.33;;;4.17;;
35743;SDS011;21867;52.012;4.324;2023-12-22T08:58:14;12.90;;;4.00;;
35743;SDS011;21867;52.012;4.324;2023-12-22T09:04:33;7.27;;;3.07;;
35743;SDS011;21867;52.012;4.324;2023-12-22T09:07:02;12.03;;;3.97;;
35743;SDS011;21867;52.012;4.324;2023-12-22T09:09:29;17.07;;;5.03;;
35743;SDS011;21867;52.012;4.324;2023-12-22T09:11:56;9.67;;;3.20;;
35743;SDS011;21867;52.012;4.324;2023-12-22T09:14:24;14.27;;;5.33;;
35743;SDS011;21867;52.012;4.324;2023-12-22T09:20:08;16.73;;;3.83;;
35743;SDS011;21867;52.012;4.324;2023-12-22T09:22:37;6.60;;;3.03;;
35743;SDS011;21867;52.012;4.324;2023-12-22T09:25:05;12.63;;;3.93;;
35743;SDS011;21867;52.012;4.324;2023-12-22T09:31:26;6.90;;;2.80;;
35743;SDS011;21867;52.012;4.324;2023-12-22T09:36:40;6.47;;;2.90;;
35743;SDS011;21867;52.012;4.324;2023-12-22T09:39:09;14.50;;;4.37;;
35743;SDS011;21867;52.012;4.324;2023-12-22T09:41:36;13.30;;;4.13;;
35743;SDS011;21867;52.012;4.324;2023-12-22T09:44:03;7.37;;;3.67;;
35743;SDS011;21867;52.012;4.324;2023-12-22T09:46:33;9.77;;;3.13;;
35743;SDS011;21867;52.012;4.324;2023-12-22T09:49:02;10.03;;;3.30;;
35743;SDS011;21867;52.012;4.324;2023-12-22T09:51:30;9.63;;;4.03;;
35743;SDS011;21867;52.012;4.324;2023-12-22T09:53:57;11.77;;;3.03;;
35743;SDS011;21867;52.012;4.324;2023-12-22T09:56:30;10.93;;;2.93;;
35743;SDS011;21867;52.012;4.324;2023-12-22T10:05:43;8.63;;;3.60;;
35743;SDS011;21867;52.012;4.324;2023-12-22T10:08:10;12.80;;;4.57;;
35743;SDS011;21867;52.012;4.324;2023-12-22T10:10:39;13.77;;;4.37;;
35743;SDS011;21867;52.012;4.324;2023-12-22T10:13:08;10.97;;;2.87;;
35743;SDS011;21867;52.012;4.324;2023-12-22T10:15:37;16.43;;;3.10;;
35743;SDS011;21867;52.012;4.324;2023-12-22T10:20:55;5.57;;;3.20;;
35743;SDS011;21867;52.012;4.324;2023-12-22T10:23:22;11.63;;;4.27;;
35743;SDS011;21867;52.012;4.324;2023-12-22T10:25:50;11.10;;;3.40;;
35743;SDS011;21867;52.012;4.324;2023-12-22T10:28:19;11.20;;;3.97;;
35743;SDS011;21867;52.012;4.324;2023-12-22T10:30:47;11.47;;;4.07;;
35743;SDS011;21867;52.012;4.324;2023-12-22T10:40:00;12.97;;;3.77;;
35743;SDS011;21867;52.012;4.324;2023-12-22T10:42:27;9.83;;;3.87;;
35743;SDS011;21867;52.012;4.324;2023-12-22T10:44:56;11.10;;;3.53;;
35743;SDS011;21867;52.012;4.324;2023-12-22T10:47:24;12.50;;;4.20;;
35743;SDS011;21867;52.012;4.324;2023-12-22T10:49:51;15.30;;;3.90;;
35743;SDS011;21867;52.012;4.324;2023-12-22T10:52:37;12.87;;;3.30;;
35743;SDS011;21867;52.012;4.324;2023-12-22T10:55:04;9.30;;;3.40;;
35743;SDS011;21867;52.012;4.324;2023-12-22T10:57:32;18.77;;;4.60;;
35743;SDS011;21867;52.012;4.324;2023-12-22T11:00:01;18.73;;;4.50;;
35743;SDS011;21867;52.012;4.324;2023-12-22T11:08:50;10.17;;;3.43;;
35743;SDS011;21867;52.012;4.324;2023-12-22T11:11:20;15.43;;;4.57;;
35743;SDS011;21867;52.012;4.324;2023-12-22T11:13:53;7.60;;;3.17;;
35743;SDS011;21867;52.012;4.324;2023-12-22T11:16:23;18.27;;;4.23;;
35743;SDS011;21867;52.012;4.324;2023-12-22T11:18:51;11.17;;;4.00;;
35743;SDS011;21867;52.012;4.324;2023-12-22T11:21:21;12.70;;;4.70;;
35743;SDS011;21867;52.012;4.324;2023-12-22T11:23:49;11.47;;;3.93;;
35743;SDS011;21867;52.012;4.324;2023-12-22T11:26:17;17.17;;;4.43;;
35743;SDS011;21867;52.012;4.324;2023-12-22T11:28:45;14.77;;;4.17;;
35743;SDS011;21867;52.012;4.324;2023-12-22T11:31:12;12.60;;;3.60;;
35743;SDS011;21867;52.012;4.324;2023-12-22T11:33:42;16.03;;;4.10;;
35743;SDS011;21867;52.012;4.324;2023-12-22T11:36:28;10.90;;;4.33;;
35743;SDS011;21867;52.012;4.324;2023-12-22T11:38:56;10.23;;;3.87;;
35743;SDS011;21867;52.012;4.324;2023-12-22T11:41:24;14.33;;;4.13;;
35743;SDS011;21867;52.012;4.324;2023-12-22T11:43:53;15.90;;;3.43;;
35743;SDS011;21867;52.012;4.324;2023-12-22T11:46:21;10.93;;;3.90;;
35743;SDS011;21867;52.012;4.324;2023-12-22T11:48:50;12.37;;;4.37;;
35743;SDS011;21867;52.012;4.324;2023-12-22T11:51:18;18.60;;;4.57;;
35743;SDS011;21867;52.012;4.324;2023-12-22T11:53:48;16.10;;;5.27;;
35743;SDS011;21867;52.012;4.324;2023-12-22T11:56:16;13.93;;;3.60;;
35743;SDS011;21867;52.012;4.324;2023-12-22T11:58:44;11.97;;;3.40;;
35743;SDS011;21867;52.012;4.324;2023-12-22T12:01:12;16.90;;;4.77;;
35743;SDS011;21867;52.012;4.324;2023-12-22T12:03:47;14.87;;;4.40;;
35743;SDS011;21867;52.012;4.324;2023-12-22T12:09:13;10.40;;;3.37;;
35743;SDS011;21867;52.012;4.324;2023-12-22T12:14:29;14.00;;;3.97;;
35743;SDS011;21867;52.012;4.324;2023-12-22T12:16:56;18.77;;;4.30;;
35743;SDS011;21867;52.012;4.324;2023-12-22T12:19:26;9.53;;;2.90;;
35743;SDS011;21867;52.012;4.324;2023-12-22T12:45:13;11.27;;;3.53;;
35743;SDS011;21867;52.012;4.324;2023-12-22T12:47:41;20.37;;;5.00;;
35743;SDS011;21867;52.012;4.324;2023-12-22T12:50:09;14.07;;;4.00;;
35743;SDS011;21867;52.012;4.324;2023-12-22T12:58:58;15.10;;;4.07;;
35743;SDS011;21867;52.012;4.324;2023-12-22T13:01:27;13.63;;;5.70;;
35743;SDS011;21867;52.012;4.324;2023-12-22T13:04:03;16.17;;;4.37;;
35743;SDS011;21867;52.012;4.324;2023-12-22T13:06:30;19.83;;;4.50;;
35743;SDS011;21867;52.012;4.324;2023-12-22T13:08:58;22.63;;;5.27;;
35743;SDS011;21867;52.012;4.324;2023-12-22T13:14:12;16.10;;;4.53;;
35743;SDS011;21867;52.012;4.324;2023-12-22T13:16:40;22.23;;;5.47;;
35743;SDS011;21867;52.012;4.324;2023-12-22T13:19:08;14.20;;;4.47;;
35743;SDS011;21867;52.012;4.324;2023-12-22T13:28:25;10.87;;;4.40;;
35743;SDS011;21867;52.012;4.324;2023-12-22T13:30:53;13.83;;;4.13;;
35743;SDS011;21867;52.012;4.324;2023-12-22T13:33:22;11.87;;;4.57;;
35743;SDS011;21867;52.012;4.324;2023-12-22T13:35:50;13.77;;;4.10;;
35743;SDS011;21867;52.012;4.324;2023-12-22T13:38:17;14.33;;;4.27;;
35743;SDS011;21867;52.012;4.324;2023-12-22T13:43:33;23.77;;;5.77;;
35743;SDS011;21867;52.012;4.324;2023-12-22T13:46:00;12.80;;;3.97;;
35743;SDS011;21867;52.012;4.324;2023-12-22T13:48:29;19.33;;;5.73;;
35743;SDS011;21867;52.012;4.324;2023-12-22T13:57:43;18.83;;;4.67;;
35743;SDS011;21867;52.012;4.324;2023-12-22T14:00:26;13.23;;;4.50;;
35743;SDS011;21867;52.012;4.324;2023-12-22T14:02:54;18.20;;;4.80;;
35743;SDS011;21867;52.012;4.324;2023-12-22T14:05:23;16.87;;;5.10;;
35743;SDS011;21867;52.012;4.324;2023-12-22T14:07:50;26.07;;;5.53;;
35743;SDS011;21867;52.012;4.324;2023-12-22T14:13:08;16.77;;;5.13;;
35743;SDS011;21867;52.012;4.324;2023-12-22T14:15:36;8.30;;;3.57;;
35743;SDS011;21867;52.012;4.324;2023-12-22T14:18:11;12.07;;;3.77;;
35743;SDS011;21867;52.012;4.324;2023-12-22T14:27:01;12.47;;;4.60;;
35743;SDS011;21867;52.012;4.324;2023-12-22T14:29:29;15.87;;;4.70;;
35743;SDS011;21867;52.012;4.324;2023-12-22T14:31:56;14.73;;;4.27;;
35743;SDS011;21867;52.012;4.324;2023-12-22T14:34:24;24.40;;;5.53;;
35743;SDS011;21867;52.012;4.324;2023-12-22T14:36:51;15.60;;;4.37;;
35743;SDS011;21867;52.012;4.324;2023-12-22T14:42:08;10.33;;;3.33;;
35743;SDS011;21867;52.012;4.324;2023-12-22T14:44:36;13.87;;;4.30;;
35743;SDS011;21867;52.012;4.324;2023-12-22T14:47:04;12.57;;;3.77;;
35743;SDS011;21867;52.012;4.324;2023-12-22T14:56:12;21.87;;;5.40;;
35743;SDS011;21867;52.012;4.324;2023-12-22T14:58:41;23.33;;;5.87;;
35743;SDS011;21867;52.012;4.324;2023-12-22T15:01:11;17.50;;;3.93;;
35743;SDS011;21867;52.012;4.324;2023-12-22T15:03:39;26.17;;;5.73;;
35743;SDS011;21867;52.012;4.324;2023-12-22T15:06:06;18.33;;;5.40;;
35743;SDS011;21867;52.012;4.324;2023-12-22T15:11:24;25.50;;;5.53;;
35743;SDS011;21867;52.012;4.324;2023-12-22T15:13:52;12.90;;;4.70;;
35743;SDS011;21867;52.012;4.324;2023-12-22T15:16:20;15.40;;;5.13;;
35743;SDS011;21867;52.012;4.324;2023-12-22T15:18:49;17.73;;;6.57;;
35743;SDS011;21867;52.012;4.324;2023-12-22T15:21:19;15.83;;;5.33;;
35743;SDS011;21867;52.012;4.324;2023-12-22T15:31:00;15.53;;;3.70;;
35743;SDS011;21867;52.012;4.324;2023-12-22T15:33:27;19.73;;;4.67;;
35743;SDS011;21867;52.012;4.324;2023-12-22T15:35:55;10.40;;;3.97;;
35743;SDS011;21867;52.012;4.324;2023-12-22T15:38:22;15.90;;;5.50;;
35743;SDS011;21867;52.012;4.324;2023-12-22T15:40:50;16.70;;;4.50;;
35743;SDS011;21867;52.012;4.324;2023-12-22T15:46:14;23.07;;;4.97;;
35743;SDS011;21867;52.012;4.324;2023-12-22T15:48:42;17.67;;;5.80;;
35743;SDS011;21867;52.012;4.324;2023-12-22T15:51:10;19.03;;;5.30;;
35743;SDS011;21867;52.012;4.324;2023-12-22T15:53:40;11.37;;;4.43;;
35743;SDS011;21867;52.012;4.324;2023-12-22T15:56:08;19.67;;;5.90;;
35743;SDS011;21867;52.012;4.324;2023-12-22T16:05:09;17.63;;;4.70;;
35743;SDS011;21867;52.012;4.324;2023-12-22T16:07:36;16.83;;;3.80;;
35743;SDS011;21867;52.012;4.324;2023-12-22T16:10:04;23.13;;;6.30;;
35743;SDS011;21867;52.012;4.324;2023-12-22T16:12:34;18.57;;;5.37;;
35743;SDS011;21867;52.012;4.324;2023-12-22T16:15:01;22.53;;;5.20;;
35743;SDS011;21867;52.012;4.324;2023-12-22T16:17:28;20.93;;;4.97;;
35743;SDS011;21867;52.012;4.324;2023-12-22T16:19:56;22.70;;;5.00;;
35743;SDS011;21867;52.012;4.324;2023-12-22T16:22:24;15.10;;;5.13;;
35743;SDS011;21867;52.012;4.324;2023-12-22T16:24:52;25.33;;;5.70;;
35743;SDS011;21867;52.012;4.324;2023-12-22T16:27:19;23.27;;;6.63;;
35743;SDS011;21867;52.012;4.324;2023-12-22T16:29:47;9.87;;;4.10;;
35743;SDS011;21867;52.012;4.324;2023-12-22T16:32:14;13.50;;;5.00;;
35743;SDS011;21867;52.012;4.324;2023-12-22T16:34:42;19.93;;;5.10;;
35743;SDS011;21867;52.012;4.324;2023-12-22T16:37:09;14.23;;;4.53;;
35743;SDS011;21867;52.012;4.324;2023-12-22T16:39:40;21.43;;;5.80;;
35743;SDS011;21867;52.012;4.324;2023-12-22T16:42:14;17.27;;;5.20;;
35743;SDS011;21867;52.012;4.324;2023-12-22T16:44:41;19.47;;;5.57;;
35743;SDS011;21867;52.012;4.324;2023-12-22T16:47:09;20.57;;;6.27;;
35743;SDS011;21867;52.012;4.324;2023-12-22T16:49:36;14.20;;;4.40;;
35743;SDS011;21867;52.012;4.324;2023-12-22T16:52:04;22.93;;;5.90;;
35743;SDS011;21867;52.012;4.324;2023-12-22T16:54:32;19.50;;;3.83;;
35743;SDS011;21867;52.012;4.324;2023-12-22T16:57:00;14.33;;;4.97;;
35743;SDS011;21867;52.012;4.324;2023-12-22T16:59:28;17.17;;;5.87;;
35743;SDS011;21867;52.012;4.324;2023-12-22T17:01:55;22.47;;;5.80;;
35743;SDS011;21867;52.012;4.324;2023-12-22T17:04:43;18.37;;;5.10;;
35743;SDS011;21867;52.012;4.324;2023-12-22T17:07:11;19.73;;;6.17;;
35743;SDS011;21867;52.012;4.324;2023-12-22T17:09:38;21.33;;;5.40;;
35743;SDS011;21867;52.012;4.324;2023-12-22T17:12:07;14.30;;;4.30;;
35743;SDS011;21867;52.012;4.324;2023-12-22T17:14:35;20.17;;;5.40;;
35743;SDS011;21867;52.012;4.324;2023-12-22T17:17:02;21.80;;;5.70;;
35743;SDS011;21867;52.012;4.324;2023-12-22T17:19:30;18.20;;;5.23;;
35743;SDS011;21867;52.012;4.324;2023-12-22T17:21:57;17.00;;;5.43;;
35743;SDS011;21867;52.012;4.324;2023-12-22T17:24:24;18.60;;;6.03;;
35743;SDS011;21867;52.012;4.324;2023-12-22T17:26:52;13.03;;;3.93;;
35743;SDS011;21867;52.012;4.324;2023-12-22T17:29:21;10.57;;;3.77;;
35743;SDS011;21867;52.012;4.324;2023-12-22T17:31:48;11.40;;;4.93;;
35743;SDS011;21867;52.012;4.324;2023-12-22T17:34:16;16.90;;;4.53;;
35743;SDS011;21867;52.012;4.324;2023-12-22T17:36:43;16.57;;;5.53;;
35743;SDS011;21867;52.012;4.324;2023-12-22T17:39:10;18.30;;;4.83;;
35743;SDS011;21867;52.012;4.324;2023-12-22T17:41:38;18.73;;;5.67;;
35743;SDS011;21867;52.012;4.324;2023-12-22T17:44:05;14.57;;;4.70;;
35743;SDS011;21867;52.012;4.324;2023-12-22T17:46:34;21.30;;;4.97;;
35743;SDS011;21867;52.012;4.324;2023-12-22T17:49:01;14.87;;;4.43;;
35743;SDS011;21867;52.012;4.324;2023-12-22T17:51:29;12.07;;;4.13;;
35743;SDS011;21867;52.012;4.324;2023-12-22T17:53:56;14.07;;;4.50;;
35743;SDS011;21867;52.012;4.324;2023-12-22T17:56:23;23.70;;;5.57;;
35743;SDS011;21867;52.012;4.324;2023-12-22T17:58:51;19.40;;;4.60;;
35743;SDS011;21867;52.012;4.324;2023-12-22T18:01:18;15.23;;;4.37;;
35743;SDS011;21867;52.012;4.324;2023-12-22T18:03:47;13.30;;;4.93;;
35743;SDS011;21867;52.012;4.324;2023-12-22T18:06:16;18.33;;;5.37;;
35743;SDS011;21867;52.012;4.324;2023-12-22T18:08:44;16.80;;;5.73;;
35743;SDS011;21867;52.012;4.324;2023-12-22T18:11:11;15.30;;;4.80;;
35743;SDS011;21867;52.012;4.324;2023-12-22T18:13:38;18.03;;;4.87;;
35743;SDS011;21867;52.012;4.324;2023-12-22T18:16:06;18.77;;;6.27;;
35743;SDS011;21867;52.012;4.324;2023-12-22T18:18:33;19.03;;;5.03;;
35743;SDS011;21867;52.012;4.324;2023-12-22T18:21:02;21.67;;;5.37;;
35743;SDS011;21867;52.012;4.324;2023-12-22T18:23:30;18.67;;;5.30;;
35743;SDS011;21867;52.012;4.324;2023-12-22T18:25:57;25.93;;;6.97;;
35743;SDS011;21867;52.012;4.324;2023-12-22T18:28:25;17.73;;;4.77;;
35743;SDS011;21867;52.012;4.324;2023-12-22T18:30:52;10.33;;;4.20;;
35743;SDS011;21867;52.012;4.324;2023-12-22T18:33:20;13.77;;;4.60;;